sensor_id;sensor_type;location;lat;lon;timestamp;P1;durP1;ratioP1;P2;durP2;ratioP2
24277;SDS011;12394;42.692;23.314;2023-09-08T00:00:40;9.23;;;7.33;;
24277;SDS011;12394;42.692;23.314;2023-09-08T00:03:05;9.70;;;7.33;;
24277;SDS011;12394;42.692;23.314;2023-09-08T00:05:31;10.43;;;8.17;;
24277;SDS011;12394;42.692;23.314;2023-09-08T00:07:56;12.23;;;8.70;;
24277;SDS011;12394;42.692;23.314;2023-09-08T00:10:22;10.10;;;7.60;;
24277;SDS011;12394;42.692;23.314;2023-09-08T00:12:47;11.90;;;8.13;;
24277;SDS011;12394;42.692;23.314;2023-09-08T00:15:13;11.90;;;7.27;;
24277;SDS011;12394;42.692;23.314;2023-09-08T00:17:38;12.97;;;7.47;;
24277;SDS011;12394;42.692;23.314;2023-09-08T00:20:05;11.13;;;7.23;;
24277;SDS011;12394;42.692;23.314;2023-09-08T00:22:34;8.50;;;7.03;;
24277;SDS011;12394;42.692;23.314;2023-09-08T00:25:00;9.23;;;6.10;;
24277;SDS011;12394;42.692;23.314;2023-09-08T00:27:26;8.77;;;6.00;;
24277;SDS011;12394;42.692;23.314;2023-09-08T00:29:51;10.47;;;6.87;;
24277;SDS011;12394;42.692;23.314;2023-09-08T00:32:17;7.20;;;5.40;;
24277;SDS011;12394;42.692;23.314;2023-09-08T00:34:42;6.03;;;5.23;;
24277;SDS011;12394;42.692;23.314;2023-09-08T00:37:08;7.60;;;5.93;;
24277;SDS011;12394;42.692;23.314;2023-09-08T00:39:35;9.17;;;5.27;;
24277;SDS011;12394;42.692;23.314;2023-09-08T00:42:01;11.17;;;5.37;;
24277;SDS011;12394;42.692;23.314;2023-09-08T00:44:26;6.87;;;4.90;;
24277;SDS011;12394;42.692;23.314;2023-09-08T00:46:52;7.00;;;4.73;;
24277;SDS011;12394;42.692;23.314;2023-09-08T00:49:17;6.00;;;4.30;;
24277;SDS011;12394;42.692;23.314;2023-09-08T00:51:43;6.80;;;4.70;;
24277;SDS011;12394;42.692;23.314;2023-09-08T00:54:08;4.93;;;4.30;;
24277;SDS011;12394;42.692;23.314;2023-09-08T00:56:34;4.97;;;3.50;;
24277;SDS011;12394;42.692;23.314;2023-09-08T00:59:02;4.17;;;3.77;;
24277;SDS011;12394;42.692;23.314;2023-09-08T01:01:29;5.70;;;4.00;;
24277;SDS011;12394;42.692;23.314;2023-09-08T01:03:54;5.90;;;3.33;;
24277;SDS011;12394;42.692;23.314;2023-09-08T01:06:20;4.13;;;3.30;;
24277;SDS011;12394;42.692;23.314;2023-09-08T01:08:46;6.27;;;3.73;;
24277;SDS011;12394;42.692;23.314;2023-09-08T01:11:12;4.30;;;3.00;;
24277;SDS011;12394;42.692;23.314;2023-09-08T01:13:38;4.83;;;3.53;;
24277;SDS011;12394;42.692;23.314;2023-09-08T01:16:03;3.93;;;3.37;;
24277;SDS011;12394;42.692;23.314;2023-09-08T01:18:28;5.03;;;4.23;;
24277;SDS011;12394;42.692;23.314;2023-09-08T01:21:03;5.80;;;4.43;;
24277;SDS011;12394;42.692;23.314;2023-09-08T01:26:08;4.50;;;3.90;;
24277;SDS011;12394;42.692;23.314;2023-09-08T01:28:37;4.67;;;4.10;;
24277;SDS011;12394;42.692;23.314;2023-09-08T01:31:05;6.50;;;4.20;;
24277;SDS011;12394;42.692;23.314;2023-09-08T01:33:31;7.07;;;4.87;;
24277;SDS011;12394;42.692;23.314;2023-09-08T01:35:57;5.07;;;4.00;;
24277;SDS011;12394;42.692;23.314;2023-09-08T01:38:23;10.63;;;4.67;;
24277;SDS011;12394;42.692;23.314;2023-09-08T01:40:49;5.67;;;4.40;;
24277;SDS011;12394;42.692;23.314;2023-09-08T01:43:15;8.07;;;4.60;;
24277;SDS011;12394;42.692;23.314;2023-09-08T01:45:40;13.57;;;4.00;;
24277;SDS011;12394;42.692;23.314;2023-09-08T01:48:06;5.27;;;4.23;;
24277;SDS011;12394;42.692;23.314;2023-09-08T01:50:31;8.47;;;4.07;;
24277;SDS011;12394;42.692;23.314;2023-09-08T01:52:56;12.20;;;4.30;;
24277;SDS011;12394;42.692;23.314;2023-09-08T01:55:22;5.93;;;4.57;;
24277;SDS011;12394;42.692;23.314;2023-09-08T01:57:47;6.03;;;3.73;;
24277;SDS011;12394;42.692;23.314;2023-09-08T02:00:13;3.93;;;3.30;;
24277;SDS011;12394;42.692;23.314;2023-09-08T02:02:39;5.37;;;4.00;;
24277;SDS011;12394;42.692;23.314;2023-09-08T02:05:05;5.57;;;4.30;;
24277;SDS011;12394;42.692;23.314;2023-09-08T02:07:31;4.70;;;4.10;;
24277;SDS011;12394;42.692;23.314;2023-09-08T02:09:57;4.60;;;4.07;;
24277;SDS011;12394;42.692;23.314;2023-09-08T02:12:22;6.10;;;3.90;;
24277;SDS011;12394;42.692;23.314;2023-09-08T02:14:47;6.83;;;4.40;;
24277;SDS011;12394;42.692;23.314;2023-09-08T02:17:13;7.17;;;4.60;;
24277;SDS011;12394;42.692;23.314;2023-09-08T02:19:38;7.37;;;3.97;;
24277;SDS011;12394;42.692;23.314;2023-09-08T02:22:04;7.33;;;3.73;;
24277;SDS011;12394;42.692;23.314;2023-09-08T02:24:29;4.23;;;3.83;;
24277;SDS011;12394;42.692;23.314;2023-09-08T02:26:54;6.17;;;4.43;;
24277;SDS011;12394;42.692;23.314;2023-09-08T02:29:20;6.63;;;4.63;;
24277;SDS011;12394;42.692;23.314;2023-09-08T02:31:45;7.73;;;4.50;;
24277;SDS011;12394;42.692;23.314;2023-09-08T02:34:11;7.13;;;4.40;;
24277;SDS011;12394;42.692;23.314;2023-09-08T02:36:37;5.03;;;4.23;;
24277;SDS011;12394;42.692;23.314;2023-09-08T02:39:03;6.77;;;4.77;;
24277;SDS011;12394;42.692;23.314;2023-09-08T02:41:29;7.17;;;4.73;;
24277;SDS011;12394;42.692;23.314;2023-09-08T02:43:54;5.30;;;4.07;;
24277;SDS011;12394;42.692;23.314;2023-09-08T02:46:20;7.30;;;4.90;;
24277;SDS011;12394;42.692;23.314;2023-09-08T02:48:45;5.17;;;4.67;;
24277;SDS011;12394;42.692;23.314;2023-09-08T02:51:11;5.17;;;4.53;;
24277;SDS011;12394;42.692;23.314;2023-09-08T02:53:37;9.30;;;5.57;;
24277;SDS011;12394;42.692;23.314;2023-09-08T02:56:02;7.43;;;4.63;;
24277;SDS011;12394;42.692;23.314;2023-09-08T02:58:30;8.10;;;5.03;;
24277;SDS011;12394;42.692;23.314;2023-09-08T03:00:58;8.30;;;4.73;;
24277;SDS011;12394;42.692;23.314;2023-09-08T03:03:34;6.27;;;4.60;;
24277;SDS011;12394;42.692;23.314;2023-09-08T03:06:00;6.53;;;4.67;;
24277;SDS011;12394;42.692;23.314;2023-09-08T03:08:28;6.73;;;5.13;;
24277;SDS011;12394;42.692;23.314;2023-09-08T03:10:55;6.27;;;4.70;;
24277;SDS011;12394;42.692;23.314;2023-09-08T03:13:22;6.40;;;4.73;;
24277;SDS011;12394;42.692;23.314;2023-09-08T03:15:47;7.70;;;5.17;;
24277;SDS011;12394;42.692;23.314;2023-09-08T03:18:13;5.23;;;4.33;;
24277;SDS011;12394;42.692;23.314;2023-09-08T03:20:38;6.20;;;5.13;;
24277;SDS011;12394;42.692;23.314;2023-09-08T03:23:05;9.07;;;4.97;;
24277;SDS011;12394;42.692;23.314;2023-09-08T03:25:30;6.23;;;4.60;;
24277;SDS011;12394;42.692;23.314;2023-09-08T03:27:56;6.20;;;5.27;;
24277;SDS011;12394;42.692;23.314;2023-09-08T03:30:21;6.83;;;4.90;;
24277;SDS011;12394;42.692;23.314;2023-09-08T03:32:47;6.87;;;5.23;;
24277;SDS011;12394;42.692;23.314;2023-09-08T03:35:12;11.83;;;8.13;;
24277;SDS011;12394;42.692;23.314;2023-09-08T03:37:38;8.63;;;5.47;;
24277;SDS011;12394;42.692;23.314;2023-09-08T03:40:03;6.83;;;5.47;;
24277;SDS011;12394;42.692;23.314;2023-09-08T03:42:32;7.63;;;5.20;;
24277;SDS011;12394;42.692;23.314;2023-09-08T03:44:57;7.27;;;5.47;;
24277;SDS011;12394;42.692;23.314;2023-09-08T03:47:22;7.63;;;4.83;;
24277;SDS011;12394;42.692;23.314;2023-09-08T03:49:48;8.07;;;6.20;;
24277;SDS011;12394;42.692;23.314;2023-09-08T03:52:13;8.10;;;5.57;;
24277;SDS011;12394;42.692;23.314;2023-09-08T03:54:39;7.03;;;4.97;;
24277;SDS011;12394;42.692;23.314;2023-09-08T03:57:04;7.50;;;5.00;;
24277;SDS011;12394;42.692;23.314;2023-09-08T03:59:29;9.33;;;6.10;;
24277;SDS011;12394;42.692;23.314;2023-09-08T04:01:55;9.70;;;5.33;;
24277;SDS011;12394;42.692;23.314;2023-09-08T04:04:20;7.50;;;5.20;;
24277;SDS011;12394;42.692;23.314;2023-09-08T04:06:46;7.43;;;5.43;;
24277;SDS011;12394;42.692;23.314;2023-09-08T04:09:11;5.83;;;4.80;;
24277;SDS011;12394;42.692;23.314;2023-09-08T04:11:37;9.50;;;5.30;;
24277;SDS011;12394;42.692;23.314;2023-09-08T04:14:02;7.10;;;5.27;;
24277;SDS011;12394;42.692;23.314;2023-09-08T04:16:28;6.57;;;5.17;;
24277;SDS011;12394;42.692;23.314;2023-09-08T04:18:53;11.30;;;6.33;;
24277;SDS011;12394;42.692;23.314;2023-09-08T04:21:19;8.17;;;5.30;;
24277;SDS011;12394;42.692;23.314;2023-09-08T04:23:44;8.00;;;5.90;;
24277;SDS011;12394;42.692;23.314;2023-09-08T04:26:09;7.37;;;5.50;;
24277;SDS011;12394;42.692;23.314;2023-09-08T04:28:35;7.90;;;5.77;;
24277;SDS011;12394;42.692;23.314;2023-09-08T04:31:00;6.57;;;5.63;;
24277;SDS011;12394;42.692;23.314;2023-09-08T04:33:26;11.17;;;6.33;;
24277;SDS011;12394;42.692;23.314;2023-09-08T04:35:51;14.47;;;6.63;;
24277;SDS011;12394;42.692;23.314;2023-09-08T04:38:17;10.30;;;6.17;;
24277;SDS011;12394;42.692;23.314;2023-09-08T04:40:44;9.57;;;6.97;;
24277;SDS011;12394;42.692;23.314;2023-09-08T04:43:11;10.70;;;6.60;;
24277;SDS011;12394;42.692;23.314;2023-09-08T04:45:37;10.37;;;7.30;;
24277;SDS011;12394;42.692;23.314;2023-09-08T04:48:02;7.90;;;5.23;;
24277;SDS011;12394;42.692;23.314;2023-09-08T04:50:29;14.20;;;9.30;;
24277;SDS011;12394;42.692;23.314;2023-09-08T04:52:56;6.97;;;5.30;;
24277;SDS011;12394;42.692;23.314;2023-09-08T04:55:22;9.43;;;5.40;;
24277;SDS011;12394;42.692;23.314;2023-09-08T04:57:48;8.00;;;6.27;;
24277;SDS011;12394;42.692;23.314;2023-09-08T05:00:14;7.17;;;5.73;;
24277;SDS011;12394;42.692;23.314;2023-09-08T05:02:39;7.23;;;5.40;;
24277;SDS011;12394;42.692;23.314;2023-09-08T05:05:05;8.90;;;5.53;;
24277;SDS011;12394;42.692;23.314;2023-09-08T05:07:30;8.00;;;6.30;;
24277;SDS011;12394;42.692;23.314;2023-09-08T05:09:56;7.33;;;5.50;;
24277;SDS011;12394;42.692;23.314;2023-09-08T05:12:21;10.57;;;5.90;;
24277;SDS011;12394;42.692;23.314;2023-09-08T05:14:47;9.53;;;6.43;;
24277;SDS011;12394;42.692;23.314;2023-09-08T05:17:12;9.30;;;5.83;;
24277;SDS011;12394;42.692;23.314;2023-09-08T05:19:38;7.40;;;6.00;;
24277;SDS011;12394;42.692;23.314;2023-09-08T05:22:04;9.33;;;6.00;;
24277;SDS011;12394;42.692;23.314;2023-09-08T05:24:31;11.17;;;4.93;;
24277;SDS011;12394;42.692;23.314;2023-09-08T05:26:57;8.30;;;5.20;;
24277;SDS011;12394;42.692;23.314;2023-09-08T05:29:23;7.67;;;5.87;;
24277;SDS011;12394;42.692;23.314;2023-09-08T05:31:49;7.17;;;5.30;;
24277;SDS011;12394;42.692;23.314;2023-09-08T05:34:14;8.30;;;5.27;;
24277;SDS011;12394;42.692;23.314;2023-09-08T05:36:40;8.57;;;5.30;;
24277;SDS011;12394;42.692;23.314;2023-09-08T05:39:07;7.73;;;4.93;;
24277;SDS011;12394;42.692;23.314;2023-09-08T05:41:33;5.23;;;4.33;;
24277;SDS011;12394;42.692;23.314;2023-09-08T05:43:58;7.23;;;4.80;;
24277;SDS011;12394;42.692;23.314;2023-09-08T05:46:24;7.10;;;4.37;;
24277;SDS011;12394;42.692;23.314;2023-09-08T05:48:50;16.13;;;5.10;;
24277;SDS011;12394;42.692;23.314;2023-09-08T05:51:15;6.07;;;4.37;;
24277;SDS011;12394;42.692;23.314;2023-09-08T05:53:41;4.83;;;4.33;;
24277;SDS011;12394;42.692;23.314;2023-09-08T05:56:07;6.33;;;4.23;;
24277;SDS011;12394;42.692;23.314;2023-09-08T05:58:32;7.47;;;4.43;;
24277;SDS011;12394;42.692;23.314;2023-09-08T06:00:59;5.47;;;4.20;;
24277;SDS011;12394;42.692;23.314;2023-09-08T06:03:28;7.57;;;4.07;;
24277;SDS011;12394;42.692;23.314;2023-09-08T06:05:53;4.83;;;3.53;;
24277;SDS011;12394;42.692;23.314;2023-09-08T06:08:19;5.10;;;4.17;;
24277;SDS011;12394;42.692;23.314;2023-09-08T06:10:44;6.03;;;4.03;;
24277;SDS011;12394;42.692;23.314;2023-09-08T06:13:35;5.83;;;4.67;;
24277;SDS011;12394;42.692;23.314;2023-09-08T06:16:02;7.13;;;3.87;;
24277;SDS011;12394;42.692;23.314;2023-09-08T06:18:28;8.07;;;4.30;;
24277;SDS011;12394;42.692;23.314;2023-09-08T06:20:56;4.20;;;3.40;;
24277;SDS011;12394;42.692;23.314;2023-09-08T06:23:23;4.77;;;3.53;;
24277;SDS011;12394;42.692;23.314;2023-09-08T06:25:49;4.83;;;3.60;;
24277;SDS011;12394;42.692;23.314;2023-09-08T06:28:14;4.43;;;3.40;;
24277;SDS011;12394;42.692;23.314;2023-09-08T06:30:40;4.10;;;3.10;;
24277;SDS011;12394;42.692;23.314;2023-09-08T06:33:07;5.10;;;3.20;;
24277;SDS011;12394;42.692;23.314;2023-09-08T06:35:35;4.23;;;3.10;;
24277;SDS011;12394;42.692;23.314;2023-09-08T06:38:01;4.97;;;2.97;;
24277;SDS011;12394;42.692;23.314;2023-09-08T06:40:28;7.73;;;3.93;;
24277;SDS011;12394;42.692;23.314;2023-09-08T06:42:54;4.47;;;3.00;;
24277;SDS011;12394;42.692;23.314;2023-09-08T06:45:20;3.33;;;2.90;;
24277;SDS011;12394;42.692;23.314;2023-09-08T06:47:45;4.73;;;3.60;;
24277;SDS011;12394;42.692;23.314;2023-09-08T06:50:11;7.67;;;3.27;;
24277;SDS011;12394;42.692;23.314;2023-09-08T06:52:36;5.70;;;3.37;;
24277;SDS011;12394;42.692;23.314;2023-09-08T06:55:02;3.53;;;2.57;;
24277;SDS011;12394;42.692;23.314;2023-09-08T06:57:28;4.67;;;2.63;;
24277;SDS011;12394;42.692;23.314;2023-09-08T06:59:53;2.77;;;2.57;;
24277;SDS011;12394;42.692;23.314;2023-09-08T07:02:18;8.77;;;2.83;;
24277;SDS011;12394;42.692;23.314;2023-09-08T07:04:44;9.30;;;2.80;;
24277;SDS011;12394;42.692;23.314;2023-09-08T07:07:09;3.23;;;2.70;;
24277;SDS011;12394;42.692;23.314;2023-09-08T07:09:35;3.63;;;2.43;;
24277;SDS011;12394;42.692;23.314;2023-09-08T07:12:05;4.13;;;2.70;;
24277;SDS011;12394;42.692;23.314;2023-09-08T07:14:51;3.47;;;2.60;;
24277;SDS011;12394;42.692;23.314;2023-09-08T07:17:16;3.93;;;2.70;;
24277;SDS011;12394;42.692;23.314;2023-09-08T07:19:42;2.73;;;2.27;;
24277;SDS011;12394;42.692;23.314;2023-09-08T07:22:07;4.20;;;2.70;;
24277;SDS011;12394;42.692;23.314;2023-09-08T07:24:33;7.97;;;3.17;;
24277;SDS011;12394;42.692;23.314;2023-09-08T07:26:59;4.17;;;2.70;;
24277;SDS011;12394;42.692;23.314;2023-09-08T07:29:25;5.90;;;3.13;;
24277;SDS011;12394;42.692;23.314;2023-09-08T07:31:51;2.40;;;2.20;;
24277;SDS011;12394;42.692;23.314;2023-09-08T07:34:16;5.93;;;2.53;;
24277;SDS011;12394;42.692;23.314;2023-09-08T07:36:41;8.17;;;3.97;;
24277;SDS011;12394;42.692;23.314;2023-09-08T07:39:08;5.60;;;3.27;;
24277;SDS011;12394;42.692;23.314;2023-09-08T07:41:34;3.20;;;2.23;;
24277;SDS011;12394;42.692;23.314;2023-09-08T07:44:01;6.23;;;4.40;;
24277;SDS011;12394;42.692;23.314;2023-09-08T07:46:27;5.20;;;2.70;;
24277;SDS011;12394;42.692;23.314;2023-09-08T07:48:53;3.53;;;3.23;;
24277;SDS011;12394;42.692;23.314;2023-09-08T07:51:18;2.90;;;2.57;;
24277;SDS011;12394;42.692;23.314;2023-09-08T07:53:43;3.77;;;2.73;;
24277;SDS011;12394;42.692;23.314;2023-09-08T07:56:09;5.43;;;2.70;;
24277;SDS011;12394;42.692;23.314;2023-09-08T07:58:34;4.63;;;1.80;;
24277;SDS011;12394;42.692;23.314;2023-09-08T08:01:01;2.90;;;2.40;;
24277;SDS011;12394;42.692;23.314;2023-09-08T08:03:27;2.90;;;2.50;;
24277;SDS011;12394;42.692;23.314;2023-09-08T08:05:52;3.40;;;2.13;;
24277;SDS011;12394;42.692;23.314;2023-09-08T08:08:18;3.47;;;2.53;;
24277;SDS011;12394;42.692;23.314;2023-09-08T08:10:43;4.03;;;2.43;;
24277;SDS011;12394;42.692;23.314;2023-09-08T08:13:08;12.40;;;3.47;;
24277;SDS011;12394;42.692;23.314;2023-09-08T08:15:35;3.53;;;2.30;;
24277;SDS011;12394;42.692;23.314;2023-09-08T08:18:02;2.73;;;1.97;;
24277;SDS011;12394;42.692;23.314;2023-09-08T08:20:29;3.43;;;2.50;;
24277;SDS011;12394;42.692;23.314;2023-09-08T08:22:55;4.33;;;2.70;;
24277;SDS011;12394;42.692;23.314;2023-09-08T08:25:20;3.00;;;2.60;;
24277;SDS011;12394;42.692;23.314;2023-09-08T08:27:45;5.03;;;2.63;;
24277;SDS011;12394;42.692;23.314;2023-09-08T08:30:11;3.47;;;2.90;;
24277;SDS011;12394;42.692;23.314;2023-09-08T08:32:36;23.37;;;3.50;;
24277;SDS011;12394;42.692;23.314;2023-09-08T08:35:02;4.37;;;3.00;;
24277;SDS011;12394;42.692;23.314;2023-09-08T08:37:29;3.30;;;2.80;;
24277;SDS011;12394;42.692;23.314;2023-09-08T08:39:55;4.20;;;3.00;;
24277;SDS011;12394;42.692;23.314;2023-09-08T08:42:20;4.70;;;2.63;;
24277;SDS011;12394;42.692;23.314;2023-09-08T08:44:47;3.67;;;2.50;;
24277;SDS011;12394;42.692;23.314;2023-09-08T08:47:13;5.60;;;2.23;;
24277;SDS011;12394;42.692;23.314;2023-09-08T08:49:41;3.47;;;2.43;;
24277;SDS011;12394;42.692;23.314;2023-09-08T08:52:11;3.80;;;2.93;;
24277;SDS011;12394;42.692;23.314;2023-09-08T08:54:38;3.03;;;2.73;;
24277;SDS011;12394;42.692;23.314;2023-09-08T08:57:05;2.80;;;2.60;;
24277;SDS011;12394;42.692;23.314;2023-09-08T08:59:31;4.90;;;3.33;;
24277;SDS011;12394;42.692;23.314;2023-09-08T09:02:00;7.80;;;2.70;;
24277;SDS011;12394;42.692;23.314;2023-09-08T09:04:29;7.03;;;2.83;;
24277;SDS011;12394;42.692;23.314;2023-09-08T09:06:56;26.43;;;5.93;;
24277;SDS011;12394;42.692;23.314;2023-09-08T09:09:22;5.87;;;2.57;;
24277;SDS011;12394;42.692;23.314;2023-09-08T09:11:49;2.43;;;2.07;;
24277;SDS011;12394;42.692;23.314;2023-09-08T09:14:14;4.13;;;2.33;;
24277;SDS011;12394;42.692;23.314;2023-09-08T09:16:42;3.67;;;2.40;;
24277;SDS011;12394;42.692;23.314;2023-09-08T09:19:08;4.13;;;2.60;;
24277;SDS011;12394;42.692;23.314;2023-09-08T09:21:44;2.90;;;2.63;;
24277;SDS011;12394;42.692;23.314;2023-09-08T09:24:14;6.40;;;2.90;;
24277;SDS011;12394;42.692;23.314;2023-09-08T09:26:40;2.80;;;2.27;;
24277;SDS011;12394;42.692;23.314;2023-09-08T09:29:12;5.90;;;2.90;;
24277;SDS011;12394;42.692;23.314;2023-09-08T09:31:54;2.77;;;2.37;;
24277;SDS011;12394;42.692;23.314;2023-09-08T09:34:22;4.77;;;2.67;;
24277;SDS011;12394;42.692;23.314;2023-09-08T09:36:48;2.97;;;2.50;;
24277;SDS011;12394;42.692;23.314;2023-09-08T09:39:21;3.23;;;2.83;;
24277;SDS011;12394;42.692;23.314;2023-09-08T09:41:49;8.37;;;3.70;;
24277;SDS011;12394;42.692;23.314;2023-09-08T09:44:18;5.57;;;3.20;;
24277;SDS011;12394;42.692;23.314;2023-09-08T09:46:46;11.60;;;2.80;;
24277;SDS011;12394;42.692;23.314;2023-09-08T09:49:12;4.00;;;3.03;;
24277;SDS011;12394;42.692;23.314;2023-09-08T09:51:48;3.97;;;2.80;;
24277;SDS011;12394;42.692;23.314;2023-09-08T09:54:15;2.73;;;2.40;;
24277;SDS011;12394;42.692;23.314;2023-09-08T09:56:41;5.30;;;2.67;;
24277;SDS011;12394;42.692;23.314;2023-09-08T09:59:08;3.43;;;2.77;;
24277;SDS011;12394;42.692;23.314;2023-09-08T10:01:35;6.83;;;2.90;;
24277;SDS011;12394;42.692;23.314;2023-09-08T10:04:02;4.60;;;2.87;;
24277;SDS011;12394;42.692;23.314;2023-09-08T10:06:30;2.63;;;2.30;;
24277;SDS011;12394;42.692;23.314;2023-09-08T10:08:58;3.70;;;2.67;;
24277;SDS011;12394;42.692;23.314;2023-09-08T10:11:25;4.07;;;3.00;;
24277;SDS011;12394;42.692;23.314;2023-09-08T10:13:55;3.93;;;2.73;;
24277;SDS011;12394;42.692;23.314;2023-09-08T10:16:23;3.33;;;2.60;;
24277;SDS011;12394;42.692;23.314;2023-09-08T10:18:53;4.07;;;2.47;;
24277;SDS011;12394;42.692;23.314;2023-09-08T10:21:24;5.03;;;3.07;;
24277;SDS011;12394;42.692;23.314;2023-09-08T10:23:57;4.70;;;2.27;;
24277;SDS011;12394;42.692;23.314;2023-09-08T10:26:29;4.18;;;3.22;;
24277;SDS011;12394;42.692;23.314;2023-09-08T10:28:57;3.57;;;2.83;;
24277;SDS011;12394;42.692;23.314;2023-09-08T10:31:26;2.73;;;1.87;;
24277;SDS011;12394;42.692;23.314;2023-09-08T10:33:54;4.43;;;2.50;;
24277;SDS011;12394;42.692;23.314;2023-09-08T10:36:22;3.00;;;2.70;;
24277;SDS011;12394;42.692;23.314;2023-09-08T10:38:48;3.50;;;2.80;;
24277;SDS011;12394;42.692;23.314;2023-09-08T10:43:45;5.33;;;3.10;;
24277;SDS011;12394;42.692;23.314;2023-09-08T10:46:20;3.27;;;2.70;;
24277;SDS011;12394;42.692;23.314;2023-09-08T10:48:47;4.13;;;3.17;;
24277;SDS011;12394;42.692;23.314;2023-09-08T10:51:13;5.07;;;3.40;;
24277;SDS011;12394;42.692;23.314;2023-09-08T10:53:39;3.13;;;2.83;;
24277;SDS011;12394;42.692;23.314;2023-09-08T10:56:19;6.00;;;2.80;;
24277;SDS011;12394;42.692;23.314;2023-09-08T10:58:51;3.70;;;2.47;;
24277;SDS011;12394;42.692;23.314;2023-09-08T11:01:18;3.50;;;2.40;;
24277;SDS011;12394;42.692;23.314;2023-09-08T11:03:47;2.80;;;2.40;;
24277;SDS011;12394;42.692;23.314;2023-09-08T11:06:15;3.87;;;2.77;;
24277;SDS011;12394;42.692;23.314;2023-09-08T11:08:43;3.47;;;2.00;;
24277;SDS011;12394;42.692;23.314;2023-09-08T11:11:16;3.83;;;1.93;;
24277;SDS011;12394;42.692;23.314;2023-09-08T11:13:45;4.10;;;3.00;;
24277;SDS011;12394;42.692;23.314;2023-09-08T11:16:16;5.00;;;2.60;;
24277;SDS011;12394;42.692;23.314;2023-09-08T11:18:46;3.57;;;2.93;;
24277;SDS011;12394;42.692;23.314;2023-09-08T11:21:17;2.80;;;2.50;;
24277;SDS011;12394;42.692;23.314;2023-09-08T11:24:02;5.00;;;3.40;;
24277;SDS011;12394;42.692;23.314;2023-09-08T11:26:34;4.90;;;2.70;;
24277;SDS011;12394;42.692;23.314;2023-09-08T11:31:44;7.00;;;3.10;;
24277;SDS011;12394;42.692;23.314;2023-09-08T11:34:12;8.07;;;3.50;;
24277;SDS011;12394;42.692;23.314;2023-09-08T11:36:40;2.90;;;2.37;;
24277;SDS011;12394;42.692;23.314;2023-09-08T11:39:07;3.20;;;2.43;;
24277;SDS011;12394;42.692;23.314;2023-09-08T11:41:35;3.77;;;2.93;;
24277;SDS011;12394;42.692;23.314;2023-09-08T11:44:00;3.80;;;3.00;;
24277;SDS011;12394;42.692;23.314;2023-09-08T11:46:26;3.73;;;2.87;;
24277;SDS011;12394;42.692;23.314;2023-09-08T11:48:52;4.40;;;2.83;;
24277;SDS011;12394;42.692;23.314;2023-09-08T11:51:22;3.80;;;2.50;;
24277;SDS011;12394;42.692;23.314;2023-09-08T11:53:48;3.83;;;3.03;;
24277;SDS011;12394;42.692;23.314;2023-09-08T11:56:13;3.90;;;2.63;;
24277;SDS011;12394;42.692;23.314;2023-09-08T11:58:39;4.50;;;2.60;;
24277;SDS011;12394;42.692;23.314;2023-09-08T12:01:06;3.87;;;2.63;;
24277;SDS011;12394;42.692;23.314;2023-09-08T12:03:32;5.57;;;3.23;;
24277;SDS011;12394;42.692;23.314;2023-09-08T12:05:57;2.73;;;2.40;;
24277;SDS011;12394;42.692;23.314;2023-09-08T12:08:24;4.57;;;3.17;;
24277;SDS011;12394;42.692;23.314;2023-09-08T12:10:53;4.07;;;2.90;;
24277;SDS011;12394;42.692;23.314;2023-09-08T12:13:24;6.80;;;3.23;;
24277;SDS011;12394;42.692;23.314;2023-09-08T12:15:50;5.87;;;3.30;;
24277;SDS011;12394;42.692;23.314;2023-09-08T12:18:18;4.20;;;2.80;;
24277;SDS011;12394;42.692;23.314;2023-09-08T12:21:05;3.33;;;2.97;;
24277;SDS011;12394;42.692;23.314;2023-09-08T12:23:30;3.60;;;2.80;;
24277;SDS011;12394;42.692;23.314;2023-09-08T12:26:15;3.40;;;2.70;;
24277;SDS011;12394;42.692;23.314;2023-09-08T12:29:00;2.87;;;2.57;;
24277;SDS011;12394;42.692;23.314;2023-09-08T12:31:30;4.97;;;2.87;;
24277;SDS011;12394;42.692;23.314;2023-09-08T12:33:57;4.10;;;2.70;;
24277;SDS011;12394;42.692;23.314;2023-09-08T12:36:23;3.40;;;3.10;;
24277;SDS011;12394;42.692;23.314;2023-09-08T12:38:49;4.03;;;2.60;;
24277;SDS011;12394;42.692;23.314;2023-09-08T12:41:16;3.77;;;2.60;;
24277;SDS011;12394;42.692;23.314;2023-09-08T12:43:51;3.10;;;2.47;;
24277;SDS011;12394;42.692;23.314;2023-09-08T12:46:19;3.50;;;2.83;;
24277;SDS011;12394;42.692;23.314;2023-09-08T12:48:46;4.17;;;3.03;;
24277;SDS011;12394;42.692;23.314;2023-09-08T12:51:12;5.50;;;3.10;;
24277;SDS011;12394;42.692;23.314;2023-09-08T12:53:39;3.10;;;2.80;;
24277;SDS011;12394;42.692;23.314;2023-09-08T12:56:04;2.77;;;2.57;;
24277;SDS011;12394;42.692;23.314;2023-09-08T12:58:30;3.47;;;2.60;;
24277;SDS011;12394;42.692;23.314;2023-09-08T13:00:55;5.00;;;2.67;;
24277;SDS011;12394;42.692;23.314;2023-09-08T13:03:24;3.57;;;2.77;;
24277;SDS011;12394;42.692;23.314;2023-09-08T13:05:50;5.00;;;3.53;;
24277;SDS011;12394;42.692;23.314;2023-09-08T13:08:15;4.90;;;3.63;;
24277;SDS011;12394;42.692;23.314;2023-09-08T13:10:41;3.07;;;2.70;;
24277;SDS011;12394;42.692;23.314;2023-09-08T13:13:12;4.23;;;3.27;;
24277;SDS011;12394;42.692;23.314;2023-09-08T13:15:38;2.93;;;2.40;;
24277;SDS011;12394;42.692;23.314;2023-09-08T13:18:05;3.93;;;2.27;;
24277;SDS011;12394;42.692;23.314;2023-09-08T13:20:34;3.43;;;2.90;;
24277;SDS011;12394;42.692;23.314;2023-09-08T13:23:02;3.23;;;2.30;;
24277;SDS011;12394;42.692;23.314;2023-09-08T13:25:28;4.60;;;2.83;;
24277;SDS011;12394;42.692;23.314;2023-09-08T13:27:53;3.43;;;2.90;;
24277;SDS011;12394;42.692;23.314;2023-09-08T13:30:22;4.47;;;2.90;;
24277;SDS011;12394;42.692;23.314;2023-09-08T13:32:53;3.27;;;2.70;;
24277;SDS011;12394;42.692;23.314;2023-09-08T13:35:21;3.53;;;2.77;;
24277;SDS011;12394;42.692;23.314;2023-09-08T13:37:46;5.90;;;2.50;;
24277;SDS011;12394;42.692;23.314;2023-09-08T13:40:12;3.07;;;2.80;;
24277;SDS011;12394;42.692;23.314;2023-09-08T13:42:38;3.37;;;2.93;;
24277;SDS011;12394;42.692;23.314;2023-09-08T13:45:04;6.27;;;2.40;;
24277;SDS011;12394;42.692;23.314;2023-09-08T13:47:30;7.23;;;2.53;;
24277;SDS011;12394;42.692;23.314;2023-09-08T13:49:55;3.93;;;2.50;;
24277;SDS011;12394;42.692;23.314;2023-09-08T13:52:21;4.03;;;2.67;;
24277;SDS011;12394;42.692;23.314;2023-09-08T13:54:46;2.80;;;2.57;;
24277;SDS011;12394;42.692;23.314;2023-09-08T13:57:11;4.47;;;2.63;;
24277;SDS011;12394;42.692;23.314;2023-09-08T13:59:37;4.67;;;3.00;;
24277;SDS011;12394;42.692;23.314;2023-09-08T14:02:02;4.20;;;3.07;;
24277;SDS011;12394;42.692;23.314;2023-09-08T14:04:28;3.90;;;3.00;;
24277;SDS011;12394;42.692;23.314;2023-09-08T14:06:54;5.57;;;2.63;;
24277;SDS011;12394;42.692;23.314;2023-09-08T14:09:20;3.93;;;2.97;;
24277;SDS011;12394;42.692;23.314;2023-09-08T14:11:45;4.63;;;3.23;;
24277;SDS011;12394;42.692;23.314;2023-09-08T14:14:11;4.93;;;3.50;;
24277;SDS011;12394;42.692;23.314;2023-09-08T14:16:36;3.20;;;2.60;;
24277;SDS011;12394;42.692;23.314;2023-09-08T14:19:02;3.17;;;2.87;;
24277;SDS011;12394;42.692;23.314;2023-09-08T14:21:27;4.93;;;3.17;;
24277;SDS011;12394;42.692;23.314;2023-09-08T14:23:53;4.33;;;3.03;;
24277;SDS011;12394;42.692;23.314;2023-09-08T14:26:18;5.03;;;3.00;;
24277;SDS011;12394;42.692;23.314;2023-09-08T14:28:45;4.20;;;3.13;;
24277;SDS011;12394;42.692;23.314;2023-09-08T14:31:11;3.90;;;3.03;;
24277;SDS011;12394;42.692;23.314;2023-09-08T14:33:36;5.63;;;2.97;;
24277;SDS011;12394;42.692;23.314;2023-09-08T14:36:02;3.90;;;3.30;;
24277;SDS011;12394;42.692;23.314;2023-09-08T14:38:28;3.07;;;2.77;;